• Join FlightAware (Why Join?)
  • Login
  • US Flag 
02:51PM EDT


 

Airport Tracker/Info


-or-


 

Live Flight TrackerFlight Track Log ✈ SKW5339 ✈ 10-May-2013 ✈ KRDM - KPDX

Flight Track Log - Related Links

Times and Time Zones

All times are in EDT time to prevent confusion due to time zone crossing. See the SKW5339 flight status page for this flight to view local times or setup timezone preferences in your user account.

Time Position Orientation Groundspeed Altitude Reporting Facility
EDT Latitude Longitude Course Direction KTS MPH feet Rate Location/Type
09:07AM 44.2919 -121.1511 313° West 188 216 5,100  Level Seattle Center
09:08AM 44.3097 -121.2172 291° West 184 212 7,100 1,800 Climbing Seattle Center
09:09AM 44.3308 -121.2872 293° West 192 221 8,800 1,680 Climbing Seattle Center
09:10AM 44.3779 -121.5058 305° West  Level FlightAware Approximate
09:10AM 44.3644 -121.3547 305° West 210 242 10,600  Level Seattle Center
09:11AM 44.4221 -121.5709 315° West  Level FlightAware Approximate
09:11AM 44.4047 -121.4153 313° West 210 242 12,100  Level Seattle Center
09:12AM 44.4676 -121.6347 313° West  Level FlightAware Approximate
09:12AM 44.4469 -121.4853 310° West 230 265 13,900  Level Seattle Center
09:13AM 44.4894 -121.5592 309° West 234 269 15,400 1,080 Climbing Seattle Center
09:14AM 44.5328 -121.6331 309° West 242 278 16,100 300 Climbing Seattle Center
09:15AM 44.5808 -121.7147 310° West 264 304 16,100  Level Seattle Center
09:16AM 44.6303 -121.7989 310° West 277 319 16,100  Level Seattle Center
09:17AM 44.6783 -121.8833 309° West 278 320 16,100 -60 Level Seattle Center
09:18AM 44.7228 -121.9592 310° West 281 323 16,000 -600 Descending Seattle Center
09:19AM 44.7728 -122.0478 308° West 290 334 14,900 -1,500 Descending Seattle Center
09:20AM 44.8428 -122.1697 309° West 317 365 12,900 -1,620 Descending Seattle Center
09:21AM 44.9050 -122.2172 332° Northwest 316 364 11,700 -1,320 Descending Seattle Center
09:22AM 44.9883 -122.2481 345° North 313 360 10,500 -1,200 Descending Seattle Center
09:23AM 45.0700 -122.2783 345° North 308 354 9,300 -1,200 Descending Seattle Center
09:24AM 45.1500 -122.3069 346° North 302 348 8,100 -1,200 Descending Seattle Center
09:25AM 45.2275 -122.3347 346° North 294 338 7,000 -1,080 Descending Seattle Center
09:26AM 45.3044 -122.3619 346° North 289 333 6,000 -1,080 Descending Seattle Center
09:27AM 45.3781 -122.3897 345° North 280 322 4,900 -1,320 Descending Seattle Center
09:28AM 45.4481 -122.4142 346° North 268 308 3,400 -1,200 Descending Seattle Center
09:29AM 45.5092 -122.4344 347° North 242 278 2,500 -900 Descending Seattle Center